sensor_id;sensor_type;location;lat;lon;timestamp;P1;durP1;ratioP1;P2;durP2;ratioP2
23702;SDS011;12030;50.376;8.762;2024-02-04T00:01:41;1.47;;;1.20;;
23702;SDS011;12030;50.376;8.762;2024-02-04T00:04:06;3.33;;;1.00;;
23702;SDS011;12030;50.376;8.762;2024-02-04T00:06:32;1.87;;;1.10;;
23702;SDS011;12030;50.376;8.762;2024-02-04T00:08:58;1.10;;;1.00;;
23702;SDS011;12030;50.376;8.762;2024-02-04T00:11:23;1.33;;;1.17;;
23702;SDS011;12030;50.376;8.762;2024-02-04T00:13:49;1.43;;;1.00;;
23702;SDS011;12030;50.376;8.762;2024-02-04T00:16:15;3.43;;;0.80;;
23702;SDS011;12030;50.376;8.762;2024-02-04T00:18:40;0.90;;;0.80;;
23702;SDS011;12030;50.376;8.762;2024-02-04T00:21:06;1.10;;;0.90;;
23702;SDS011;12030;50.376;8.762;2024-02-04T00:23:31;1.27;;;1.00;;
23702;SDS011;12030;50.376;8.762;2024-02-04T00:25:57;1.60;;;1.00;;
23702;SDS011;12030;50.376;8.762;2024-02-04T00:28:22;1.50;;;1.00;;
23702;SDS011;12030;50.376;8.762;2024-02-04T00:30:48;1.30;;;1.00;;
23702;SDS011;12030;50.376;8.762;2024-02-04T00:33:15;1.27;;;1.00;;
23702;SDS011;12030;50.376;8.762;2024-02-04T00:35:40;1.90;;;0.97;;
23702;SDS011;12030;50.376;8.762;2024-02-04T00:38:06;1.03;;;0.93;;
23702;SDS011;12030;50.376;8.762;2024-02-04T00:40:33;1.13;;;1.03;;
23702;SDS011;12030;50.376;8.762;2024-02-04T00:42:59;1.03;;;0.93;;
23702;SDS011;12030;50.376;8.762;2024-02-04T00:45:25;2.17;;;1.07;;
23702;SDS011;12030;50.376;8.762;2024-02-04T00:47:51;1.07;;;0.90;;
23702;SDS011;12030;50.376;8.762;2024-02-04T00:50:17;0.83;;;0.80;;
23702;SDS011;12030;50.376;8.762;2024-02-04T00:52:42;2.20;;;1.10;;
23702;SDS011;12030;50.376;8.762;2024-02-04T00:55:08;2.30;;;1.00;;
23702;SDS011;12030;50.376;8.762;2024-02-04T00:57:34;0.97;;;0.90;;
23702;SDS011;12030;50.376;8.762;2024-02-04T00:59:59;0.87;;;0.80;;
23702;SDS011;12030;50.376;8.762;2024-02-04T01:02:24;1.00;;;0.80;;
23702;SDS011;12030;50.376;8.762;2024-02-04T01:04:50;0.93;;;0.90;;
23702;SDS011;12030;50.376;8.762;2024-02-04T01:07:16;1.03;;;0.90;;
23702;SDS011;12030;50.376;8.762;2024-02-04T01:09:42;2.40;;;0.90;;
23702;SDS011;12030;50.376;8.762;2024-02-04T01:12:07;0.93;;;0.80;;
23702;SDS011;12030;50.376;8.762;2024-02-04T01:14:33;0.80;;;0.80;;
23702;SDS011;12030;50.376;8.762;2024-02-04T01:16:59;1.10;;;0.80;;
23702;SDS011;12030;50.376;8.762;2024-02-04T01:19:24;1.10;;;1.00;;
23702;SDS011;12030;50.376;8.762;2024-02-04T01:21:50;0.90;;;0.70;;
23702;SDS011;12030;50.376;8.762;2024-02-04T01:24:15;1.60;;;0.83;;
23702;SDS011;12030;50.376;8.762;2024-02-04T01:26:41;1.00;;;0.90;;
23702;SDS011;12030;50.376;8.762;2024-02-04T01:29:06;1.23;;;0.73;;
23702;SDS011;12030;50.376;8.762;2024-02-04T01:31:32;0.70;;;0.63;;
23702;SDS011;12030;50.376;8.762;2024-02-04T01:33:57;0.80;;;0.77;;
23702;SDS011;12030;50.376;8.762;2024-02-04T01:36:23;0.70;;;0.60;;
23702;SDS011;12030;50.376;8.762;2024-02-04T01:38:48;1.40;;;0.60;;
23702;SDS011;12030;50.376;8.762;2024-02-04T01:41:14;0.60;;;0.53;;
23702;SDS011;12030;50.376;8.762;2024-02-04T01:43:40;1.00;;;0.70;;
23702;SDS011;12030;50.376;8.762;2024-02-04T01:46:05;1.87;;;0.50;;
23702;SDS011;12030;50.376;8.762;2024-02-04T01:48:31;1.50;;;0.50;;
23702;SDS011;12030;50.376;8.762;2024-02-04T01:50:57;0.87;;;0.60;;
23702;SDS011;12030;50.376;8.762;2024-02-04T01:53:24;2.43;;;0.80;;
23702;SDS011;12030;50.376;8.762;2024-02-04T01:55:52;0.63;;;0.60;;
23702;SDS011;12030;50.376;8.762;2024-02-04T01:58:19;0.60;;;0.50;;
23702;SDS011;12030;50.376;8.762;2024-02-04T02:00:46;1.00;;;0.50;;
23702;SDS011;12030;50.376;8.762;2024-02-04T02:03:13;0.60;;;0.60;;
23702;SDS011;12030;50.376;8.762;2024-02-04T02:05:40;0.80;;;0.60;;
23702;SDS011;12030;50.376;8.762;2024-02-04T02:08:06;0.53;;;0.47;;
23702;SDS011;12030;50.376;8.762;2024-02-04T02:10:32;0.83;;;0.50;;
23702;SDS011;12030;50.376;8.762;2024-02-04T02:13:04;0.60;;;0.50;;
23702;SDS011;12030;50.376;8.762;2024-02-04T02:15:36;0.90;;;0.70;;
23702;SDS011;12030;50.376;8.762;2024-02-04T02:18:23;0.60;;;0.50;;
23702;SDS011;12030;50.376;8.762;2024-02-04T02:21:19;0.43;;;0.43;;
23702;SDS011;12030;50.376;8.762;2024-02-04T02:24:11;0.60;;;0.50;;
23702;SDS011;12030;50.376;8.762;2024-02-04T02:26:46;1.07;;;0.60;;
23702;SDS011;12030;50.376;8.762;2024-02-04T02:29:13;0.60;;;0.50;;
23702;SDS011;12030;50.376;8.762;2024-02-04T02:31:38;0.80;;;0.70;;
23702;SDS011;12030;50.376;8.762;2024-02-04T02:34:05;0.73;;;0.60;;
23702;SDS011;12030;50.376;8.762;2024-02-04T02:36:43;0.60;;;0.60;;
23702;SDS011;12030;50.376;8.762;2024-02-04T02:39:24;0.70;;;0.60;;
23702;SDS011;12030;50.376;8.762;2024-02-04T02:41:55;1.07;;;0.67;;
23702;SDS011;12030;50.376;8.762;2024-02-04T02:44:25;0.70;;;0.60;;
23702;SDS011;12030;50.376;8.762;2024-02-04T02:46:52;1.20;;;0.70;;
23702;SDS011;12030;50.376;8.762;2024-02-04T02:49:19;0.83;;;0.80;;
23702;SDS011;12030;50.376;8.762;2024-02-04T02:51:45;0.87;;;0.60;;
23702;SDS011;12030;50.376;8.762;2024-02-04T02:54:10;1.00;;;0.70;;
23702;SDS011;12030;50.376;8.762;2024-02-04T02:56:36;0.83;;;0.70;;
23702;SDS011;12030;50.376;8.762;2024-02-04T02:59:02;0.67;;;0.60;;
23702;SDS011;12030;50.376;8.762;2024-02-04T03:01:28;1.40;;;1.03;;
23702;SDS011;12030;50.376;8.762;2024-02-04T03:03:54;0.80;;;0.70;;
23702;SDS011;12030;50.376;8.762;2024-02-04T03:06:19;1.13;;;1.03;;
23702;SDS011;12030;50.376;8.762;2024-02-04T03:08:45;1.83;;;1.27;;
23702;SDS011;12030;50.376;8.762;2024-02-04T03:11:10;1.43;;;1.20;;
23702;SDS011;12030;50.376;8.762;2024-02-04T03:13:38;1.10;;;1.00;;
23702;SDS011;12030;50.376;8.762;2024-02-04T03:16:04;1.00;;;1.00;;
23702;SDS011;12030;50.376;8.762;2024-02-04T03:18:34;1.13;;;0.87;;
23702;SDS011;12030;50.376;8.762;2024-02-04T03:21:00;1.20;;;1.10;;
23702;SDS011;12030;50.376;8.762;2024-02-04T03:23:25;0.90;;;0.90;;
23702;SDS011;12030;50.376;8.762;2024-02-04T03:25:51;2.70;;;0.90;;
23702;SDS011;12030;50.376;8.762;2024-02-04T03:28:16;1.30;;;1.20;;
23702;SDS011;12030;50.376;8.762;2024-02-04T03:30:42;1.63;;;1.23;;
23702;SDS011;12030;50.376;8.762;2024-02-04T03:33:07;1.13;;;1.03;;
23702;SDS011;12030;50.376;8.762;2024-02-04T03:35:33;1.10;;;1.00;;
23702;SDS011;12030;50.376;8.762;2024-02-04T03:38:01;1.30;;;1.20;;
23702;SDS011;12030;50.376;8.762;2024-02-04T03:40:26;1.50;;;1.00;;
23702;SDS011;12030;50.376;8.762;2024-02-04T03:42:52;1.10;;;1.00;;
23702;SDS011;12030;50.376;8.762;2024-02-04T03:45:17;1.20;;;1.10;;
23702;SDS011;12030;50.376;8.762;2024-02-04T03:47:43;1.23;;;1.07;;
23702;SDS011;12030;50.376;8.762;2024-02-04T03:50:08;1.20;;;1.10;;
23702;SDS011;12030;50.376;8.762;2024-02-04T03:52:34;0.83;;;0.83;;
23702;SDS011;12030;50.376;8.762;2024-02-04T03:55:00;0.90;;;0.90;;
23702;SDS011;12030;50.376;8.762;2024-02-04T03:57:25;0.80;;;0.80;;
23702;SDS011;12030;50.376;8.762;2024-02-04T03:59:51;0.70;;;0.70;;
23702;SDS011;12030;50.376;8.762;2024-02-04T04:02:16;1.10;;;1.00;;
23702;SDS011;12030;50.376;8.762;2024-02-04T04:04:42;1.23;;;0.60;;
23702;SDS011;12030;50.376;8.762;2024-02-04T04:07:08;0.90;;;0.90;;
23702;SDS011;12030;50.376;8.762;2024-02-04T04:09:34;0.70;;;0.70;;
23702;SDS011;12030;50.376;8.762;2024-02-04T04:11:59;1.03;;;0.87;;
23702;SDS011;12030;50.376;8.762;2024-02-04T04:14:25;1.23;;;0.90;;
23702;SDS011;12030;50.376;8.762;2024-02-04T04:16:50;1.57;;;1.17;;
23702;SDS011;12030;50.376;8.762;2024-02-04T04:19:16;1.13;;;1.03;;
23702;SDS011;12030;50.376;8.762;2024-02-04T04:21:41;0.90;;;0.90;;
23702;SDS011;12030;50.376;8.762;2024-02-04T04:24:07;1.23;;;1.13;;
23702;SDS011;12030;50.376;8.762;2024-02-04T04:26:32;1.20;;;1.10;;
23702;SDS011;12030;50.376;8.762;2024-02-04T04:28:58;1.53;;;1.30;;
23702;SDS011;12030;50.376;8.762;2024-02-04T04:31:24;1.20;;;1.10;;
23702;SDS011;12030;50.376;8.762;2024-02-04T04:33:49;1.20;;;1.10;;
23702;SDS011;12030;50.376;8.762;2024-02-04T04:36:17;1.40;;;1.30;;
23702;SDS011;12030;50.376;8.762;2024-02-04T04:38:42;1.30;;;1.20;;
23702;SDS011;12030;50.376;8.762;2024-02-04T04:41:08;1.40;;;1.30;;
23702;SDS011;12030;50.376;8.762;2024-02-04T04:43:36;1.47;;;1.20;;
23702;SDS011;12030;50.376;8.762;2024-02-04T04:46:02;1.50;;;1.40;;
23702;SDS011;12030;50.376;8.762;2024-02-04T04:48:28;1.83;;;1.30;;
23702;SDS011;12030;50.376;8.762;2024-02-04T04:50:53;1.40;;;1.30;;
23702;SDS011;12030;50.376;8.762;2024-02-04T04:53:19;1.30;;;1.20;;
23702;SDS011;12030;50.376;8.762;2024-02-04T04:55:44;1.23;;;1.17;;
23702;SDS011;12030;50.376;8.762;2024-02-04T04:58:10;1.40;;;1.30;;
23702;SDS011;12030;50.376;8.762;2024-02-04T05:00:35;1.50;;;1.40;;
23702;SDS011;12030;50.376;8.762;2024-02-04T05:03:01;3.03;;;1.33;;
23702;SDS011;12030;50.376;8.762;2024-02-04T05:05:26;1.50;;;1.40;;
23702;SDS011;12030;50.376;8.762;2024-02-04T05:07:52;1.47;;;1.37;;
23702;SDS011;12030;50.376;8.762;2024-02-04T05:10:17;1.73;;;1.63;;
23702;SDS011;12030;50.376;8.762;2024-02-04T05:12:43;1.67;;;1.57;;
23702;SDS011;12030;50.376;8.762;2024-02-04T05:15:08;1.30;;;1.20;;
23702;SDS011;12030;50.376;8.762;2024-02-04T05:17:34;1.53;;;1.43;;
23702;SDS011;12030;50.376;8.762;2024-02-04T05:20:00;1.77;;;1.67;;
23702;SDS011;12030;50.376;8.762;2024-02-04T05:22:27;1.63;;;1.53;;
23702;SDS011;12030;50.376;8.762;2024-02-04T05:24:52;2.57;;;1.63;;
23702;SDS011;12030;50.376;8.762;2024-02-04T05:27:18;1.60;;;1.50;;
23702;SDS011;12030;50.376;8.762;2024-02-04T05:29:43;2.00;;;1.90;;
23702;SDS011;12030;50.376;8.762;2024-02-04T05:32:10;1.77;;;1.67;;
23702;SDS011;12030;50.376;8.762;2024-02-04T05:34:36;1.80;;;1.70;;
23702;SDS011;12030;50.376;8.762;2024-02-04T05:37:02;2.20;;;1.93;;
23702;SDS011;12030;50.376;8.762;2024-02-04T05:39:28;2.83;;;1.90;;
23702;SDS011;12030;50.376;8.762;2024-02-04T05:41:53;1.70;;;1.60;;
23702;SDS011;12030;50.376;8.762;2024-02-04T05:44:19;1.93;;;1.83;;
23702;SDS011;12030;50.376;8.762;2024-02-04T05:46:44;1.93;;;1.83;;
23702;SDS011;12030;50.376;8.762;2024-02-04T05:49:10;2.00;;;1.80;;
23702;SDS011;12030;50.376;8.762;2024-02-04T05:51:39;3.30;;;1.97;;
23702;SDS011;12030;50.376;8.762;2024-02-04T05:54:05;1.97;;;1.87;;
23702;SDS011;12030;50.376;8.762;2024-02-04T05:56:31;2.10;;;1.90;;
23702;SDS011;12030;50.376;8.762;2024-02-04T05:58:57;1.50;;;1.40;;
23702;SDS011;12030;50.376;8.762;2024-02-04T06:01:22;1.50;;;1.40;;
23702;SDS011;12030;50.376;8.762;2024-02-04T06:03:48;2.47;;;1.30;;
23702;SDS011;12030;50.376;8.762;2024-02-04T06:06:14;1.87;;;1.43;;
23702;SDS011;12030;50.376;8.762;2024-02-04T06:08:44;1.73;;;1.30;;
23702;SDS011;12030;50.376;8.762;2024-02-04T06:11:14;1.80;;;1.27;;
23702;SDS011;12030;50.376;8.762;2024-02-04T06:13:40;1.57;;;1.47;;
23702;SDS011;12030;50.376;8.762;2024-02-04T06:16:07;1.47;;;1.37;;
23702;SDS011;12030;50.376;8.762;2024-02-04T06:18:35;2.40;;;1.37;;
23702;SDS011;12030;50.376;8.762;2024-02-04T06:21:02;1.20;;;1.10;;
23702;SDS011;12030;50.376;8.762;2024-02-04T06:23:28;2.63;;;1.30;;
23702;SDS011;12030;50.376;8.762;2024-02-04T06:25:54;1.13;;;1.03;;
23702;SDS011;12030;50.376;8.762;2024-02-04T06:28:19;1.20;;;1.10;;
23702;SDS011;12030;50.376;8.762;2024-02-04T06:30:45;1.13;;;1.00;;
23702;SDS011;12030;50.376;8.762;2024-02-04T06:33:10;1.67;;;1.10;;
23702;SDS011;12030;50.376;8.762;2024-02-04T06:35:36;2.43;;;1.10;;
23702;SDS011;12030;50.376;8.762;2024-02-04T06:38:01;1.10;;;1.00;;
23702;SDS011;12030;50.376;8.762;2024-02-04T06:40:27;1.37;;;0.90;;
23702;SDS011;12030;50.376;8.762;2024-02-04T06:42:53;1.23;;;0.90;;
23702;SDS011;12030;50.376;8.762;2024-02-04T06:45:18;1.13;;;0.90;;
23702;SDS011;12030;50.376;8.762;2024-02-04T06:47:43;2.40;;;0.90;;
23702;SDS011;12030;50.376;8.762;2024-02-04T06:50:12;0.80;;;0.80;;
23702;SDS011;12030;50.376;8.762;2024-02-04T06:52:42;1.10;;;0.97;;
23702;SDS011;12030;50.376;8.762;2024-02-04T06:55:08;0.70;;;0.70;;
23702;SDS011;12030;50.376;8.762;2024-02-04T06:57:34;0.80;;;0.80;;
23702;SDS011;12030;50.376;8.762;2024-02-04T07:00:00;1.00;;;0.90;;
23702;SDS011;12030;50.376;8.762;2024-02-04T07:02:26;1.30;;;0.90;;
23702;SDS011;12030;50.376;8.762;2024-02-04T07:04:52;1.20;;;0.90;;
23702;SDS011;12030;50.376;8.762;2024-02-04T07:07:18;1.10;;;0.70;;
23702;SDS011;12030;50.376;8.762;2024-02-04T07:09:43;1.43;;;1.00;;
23702;SDS011;12030;50.376;8.762;2024-02-04T07:12:08;1.03;;;0.93;;
23702;SDS011;12030;50.376;8.762;2024-02-04T07:14:34;1.03;;;0.70;;
23702;SDS011;12030;50.376;8.762;2024-02-04T07:16:59;0.77;;;0.77;;
23702;SDS011;12030;50.376;8.762;2024-02-04T07:19:25;1.47;;;0.70;;
23702;SDS011;12030;50.376;8.762;2024-02-04T07:21:50;0.93;;;0.83;;
23702;SDS011;12030;50.376;8.762;2024-02-04T07:24:16;0.80;;;0.70;;
23702;SDS011;12030;50.376;8.762;2024-02-04T07:26:43;1.00;;;0.90;;
23702;SDS011;12030;50.376;8.762;2024-02-04T07:29:10;1.10;;;0.70;;
23702;SDS011;12030;50.376;8.762;2024-02-04T07:31:37;1.37;;;0.90;;
23702;SDS011;12030;50.376;8.762;2024-02-04T07:34:02;0.77;;;0.77;;
23702;SDS011;12030;50.376;8.762;2024-02-04T07:36:28;2.20;;;0.90;;
23702;SDS011;12030;50.376;8.762;2024-02-04T07:38:54;0.87;;;0.87;;
23702;SDS011;12030;50.376;8.762;2024-02-04T07:41:20;1.00;;;0.80;;
23702;SDS011;12030;50.376;8.762;2024-02-04T07:43:45;1.63;;;0.80;;
23702;SDS011;12030;50.376;8.762;2024-02-04T07:46:11;0.70;;;0.63;;
23702;SDS011;12030;50.376;8.762;2024-02-04T07:48:36;1.50;;;1.00;;
23702;SDS011;12030;50.376;8.762;2024-02-04T07:51:02;0.70;;;0.70;;
23702;SDS011;12030;50.376;8.762;2024-02-04T07:53:27;0.70;;;0.63;;
23702;SDS011;12030;50.376;8.762;2024-02-04T07:55:53;0.83;;;0.77;;
23702;SDS011;12030;50.376;8.762;2024-02-04T07:58:18;1.53;;;0.80;;
23702;SDS011;12030;50.376;8.762;2024-02-04T08:00:44;0.97;;;0.70;;
23702;SDS011;12030;50.376;8.762;2024-02-04T08:03:09;1.17;;;0.80;;
23702;SDS011;12030;50.376;8.762;2024-02-04T08:05:35;0.70;;;0.60;;
23702;SDS011;12030;50.376;8.762;2024-02-04T08:08:01;0.60;;;0.50;;
23702;SDS011;12030;50.376;8.762;2024-02-04T08:10:27;1.07;;;0.60;;
23702;SDS011;12030;50.376;8.762;2024-02-04T08:12:52;1.00;;;0.70;;
23702;SDS011;12030;50.376;8.762;2024-02-04T08:15:19;0.83;;;0.60;;
23702;SDS011;12030;50.376;8.762;2024-02-04T08:17:45;0.80;;;0.60;;
23702;SDS011;12030;50.376;8.762;2024-02-04T08:20:11;0.70;;;0.63;;
23702;SDS011;12030;50.376;8.762;2024-02-04T08:22:36;1.00;;;0.43;;
23702;SDS011;12030;50.376;8.762;2024-02-04T08:25:02;0.60;;;0.50;;
23702;SDS011;12030;50.376;8.762;2024-02-04T08:27:29;0.93;;;0.50;;
23702;SDS011;12030;50.376;8.762;2024-02-04T08:29:54;1.67;;;0.60;;
23702;SDS011;12030;50.376;8.762;2024-02-04T08:32:20;0.83;;;0.50;;
23702;SDS011;12030;50.376;8.762;2024-02-04T08:34:46;0.73;;;0.67;;
23702;SDS011;12030;50.376;8.762;2024-02-04T08:37:11;0.70;;;0.60;;
23702;SDS011;12030;50.376;8.762;2024-02-04T08:39:37;0.40;;;0.40;;
23702;SDS011;12030;50.376;8.762;2024-02-04T08:42:03;1.73;;;0.60;;
23702;SDS011;12030;50.376;8.762;2024-02-04T08:44:28;0.60;;;0.33;;
23702;SDS011;12030;50.376;8.762;2024-02-04T08:46:54;1.03;;;0.60;;
23702;SDS011;12030;50.376;8.762;2024-02-04T08:49:20;0.63;;;0.60;;
23702;SDS011;12030;50.376;8.762;2024-02-04T08:51:46;0.60;;;0.57;;
23702;SDS011;12030;50.376;8.762;2024-02-04T08:54:11;0.90;;;0.60;;
23702;SDS011;12030;50.376;8.762;2024-02-04T08:56:37;0.60;;;0.50;;
23702;SDS011;12030;50.376;8.762;2024-02-04T08:59:02;1.03;;;0.50;;
23702;SDS011;12030;50.376;8.762;2024-02-04T09:01:28;0.80;;;0.50;;
23702;SDS011;12030;50.376;8.762;2024-02-04T09:03:53;0.60;;;0.50;;
23702;SDS011;12030;50.376;8.762;2024-02-04T09:06:19;0.80;;;0.60;;
23702;SDS011;12030;50.376;8.762;2024-02-04T09:08:45;0.87;;;0.53;;
23702;SDS011;12030;50.376;8.762;2024-02-04T09:11:11;1.00;;;0.50;;
23702;SDS011;12030;50.376;8.762;2024-02-04T09:13:43;1.13;;;0.50;;
23702;SDS011;12030;50.376;8.762;2024-02-04T09:16:09;1.13;;;0.50;;
23702;SDS011;12030;50.376;8.762;2024-02-04T09:18:35;0.40;;;0.40;;
23702;SDS011;12030;50.376;8.762;2024-02-04T09:21:01;0.70;;;0.47;;
23702;SDS011;12030;50.376;8.762;2024-02-04T09:23:27;0.60;;;0.43;;
23702;SDS011;12030;50.376;8.762;2024-02-04T09:25:52;1.00;;;0.70;;
23702;SDS011;12030;50.376;8.762;2024-02-04T09:28:18;0.50;;;0.40;;
23702;SDS011;12030;50.376;8.762;2024-02-04T09:30:43;0.60;;;0.50;;
23702;SDS011;12030;50.376;8.762;2024-02-04T09:33:09;0.57;;;0.30;;
23702;SDS011;12030;50.376;8.762;2024-02-04T09:35:34;0.77;;;0.50;;
23702;SDS011;12030;50.376;8.762;2024-02-04T09:38:00;1.03;;;0.40;;
23702;SDS011;12030;50.376;8.762;2024-02-04T09:40:26;0.60;;;0.40;;
23702;SDS011;12030;50.376;8.762;2024-02-04T09:42:51;0.63;;;0.50;;
23702;SDS011;12030;50.376;8.762;2024-02-04T09:45:17;1.77;;;0.30;;
23702;SDS011;12030;50.376;8.762;2024-02-04T09:47:43;0.40;;;0.40;;
23702;SDS011;12030;50.376;8.762;2024-02-04T09:50:10;2.47;;;0.40;;
23702;SDS011;12030;50.376;8.762;2024-02-04T09:52:36;0.60;;;0.40;;
23702;SDS011;12030;50.376;8.762;2024-02-04T09:55:05;1.33;;;0.60;;
23702;SDS011;12030;50.376;8.762;2024-02-04T09:57:34;0.50;;;0.47;;
23702;SDS011;12030;50.376;8.762;2024-02-04T10:00:02;0.60;;;0.50;;
23702;SDS011;12030;50.376;8.762;2024-02-04T10:02:29;0.63;;;0.50;;
23702;SDS011;12030;50.376;8.762;2024-02-04T10:04:57;0.40;;;0.40;;
23702;SDS011;12030;50.376;8.762;2024-02-04T10:07:22;0.80;;;0.40;;
23702;SDS011;12030;50.376;8.762;2024-02-04T10:09:49;0.43;;;0.30;;
23702;SDS011;12030;50.376;8.762;2024-02-04T10:12:15;1.77;;;0.40;;
23702;SDS011;12030;50.376;8.762;2024-02-04T10:14:41;0.40;;;0.30;;
23702;SDS011;12030;50.376;8.762;2024-02-04T10:17:07;0.50;;;0.40;;
23702;SDS011;12030;50.376;8.762;2024-02-04T10:19:33;0.63;;;0.40;;
23702;SDS011;12030;50.376;8.762;2024-02-04T10:21:59;0.80;;;0.37;;
23702;SDS011;12030;50.376;8.762;2024-02-04T10:24:26;0.47;;;0.30;;
23702;SDS011;12030;50.376;8.762;2024-02-04T10:26:53;0.63;;;0.50;;
23702;SDS011;12030;50.376;8.762;2024-02-04T10:29:22;0.40;;;0.30;;
23702;SDS011;12030;50.376;8.762;2024-02-04T10:31:48;0.53;;;0.40;;
23702;SDS011;12030;50.376;8.762;2024-02-04T10:34:18;1.10;;;0.40;;
23702;SDS011;12030;50.376;8.762;2024-02-04T10:36:44;0.47;;;0.40;;
23702;SDS011;12030;50.376;8.762;2024-02-04T10:39:10;0.90;;;0.40;;
23702;SDS011;12030;50.376;8.762;2024-02-04T10:41:35;0.40;;;0.40;;
23702;SDS011;12030;50.376;8.762;2024-02-04T10:44:14;1.37;;;0.50;;
23702;SDS011;12030;50.376;8.762;2024-02-04T10:46:41;1.33;;;0.60;;
23702;SDS011;12030;50.376;8.762;2024-02-04T10:49:11;0.50;;;0.50;;
23702;SDS011;12030;50.376;8.762;2024-02-04T10:51:39;0.43;;;0.20;;
23702;SDS011;12030;50.376;8.762;2024-02-04T10:54:06;0.30;;;0.20;;
23702;SDS011;12030;50.376;8.762;2024-02-04T10:56:43;0.40;;;0.30;;
23702;SDS011;12030;50.376;8.762;2024-02-04T10:59:09;0.60;;;0.30;;
23702;SDS011;12030;50.376;8.762;2024-02-04T11:01:37;0.30;;;0.10;;
23702;SDS011;12030;50.376;8.762;2024-02-04T11:04:10;0.23;;;0.10;;
23702;SDS011;12030;50.376;8.762;2024-02-04T11:06:37;0.37;;;0.10;;
23702;SDS011;12030;50.376;8.762;2024-02-04T11:09:03;0.20;;;0.00;;
23702;SDS011;12030;50.376;8.762;2024-02-04T11:11:31;0.20;;;0.00;;
23702;SDS011;12030;50.376;8.762;2024-02-04T11:13:58;0.20;;;0.10;;
23702;SDS011;12030;50.376;8.762;2024-02-04T11:27:45;0.20;;;0.00;;
23702;SDS011;12030;50.376;8.762;2024-02-04T11:30:11;0.30;;;0.10;;
23702;SDS011;12030;50.376;8.762;2024-02-04T11:32:36;0.20;;;0.00;;
23702;SDS011;12030;50.376;8.762;2024-02-04T11:35:02;0.43;;;0.03;;
23702;SDS011;12030;50.376;8.762;2024-02-04T11:37:32;0.20;;;0.00;;
23702;SDS011;12030;50.376;8.762;2024-02-04T11:39:58;0.37;;;0.10;;
23702;SDS011;12030;50.376;8.762;2024-02-04T11:42:24;1.53;;;0.10;;
23702;SDS011;12030;50.376;8.762;2024-02-04T11:44:50;0.37;;;0.20;;
23702;SDS011;12030;50.376;8.762;2024-02-04T11:47:33;0.20;;;0.10;;
23702;SDS011;12030;50.376;8.762;2024-02-04T11:50:00;0.20;;;0.00;;
23702;SDS011;12030;50.376;8.762;2024-02-04T11:52:28;0.27;;;0.10;;
23702;SDS011;12030;50.376;8.762;2024-02-04T11:54:54;0.40;;;0.10;;
23702;SDS011;12030;50.376;8.762;2024-02-04T11:57:20;0.33;;;0.10;;
23702;SDS011;12030;50.376;8.762;2024-02-04T11:59:46;0.30;;;0.10;;
23702;SDS011;12030;50.376;8.762;2024-02-04T12:02:15;0.30;;;0.10;;
23702;SDS011;12030;50.376;8.762;2024-02-04T12:04:41;0.83;;;0.20;;
23702;SDS011;12030;50.376;8.762;2024-02-04T12:07:11;1.70;;;0.10;;
23702;SDS011;12030;50.376;8.762;2024-02-04T12:09:38;0.50;;;0.17;;
23702;SDS011;12030;50.376;8.762;2024-02-04T12:12:04;0.40;;;0.13;;
23702;SDS011;12030;50.376;8.762;2024-02-04T12:14:30;0.20;;;0.10;;
23702;SDS011;12030;50.376;8.762;2024-02-04T12:16:56;0.40;;;0.10;;
23702;SDS011;12030;50.376;8.762;2024-02-04T12:19:25;0.20;;;0.10;;
23702;SDS011;12030;50.376;8.762;2024-02-04T12:21:50;0.20;;;0.10;;
23702;SDS011;12030;50.376;8.762;2024-02-04T12:24:16;0.43;;;0.10;;
23702;SDS011;12030;50.376;8.762;2024-02-04T12:26:42;0.30;;;0.10;;
23702;SDS011;12030;50.376;8.762;2024-02-04T12:29:10;0.37;;;0.20;;
23702;SDS011;12030;50.376;8.762;2024-02-04T12:31:35;0.40;;;0.10;;
23702;SDS011;12030;50.376;8.762;2024-02-04T12:34:01;0.20;;;0.00;;
23702;SDS011;12030;50.376;8.762;2024-02-04T12:36:27;0.20;;;0.00;;
23702;SDS011;12030;50.376;8.762;2024-02-04T12:38:54;0.20;;;0.00;;
23702;SDS011;12030;50.376;8.762;2024-02-04T12:41:20;0.30;;;0.10;;
23702;SDS011;12030;50.376;8.762;2024-02-04T12:43:54;0.20;;;0.10;;
23702;SDS011;12030;50.376;8.762;2024-02-04T12:46:21;0.20;;;0.10;;
23702;SDS011;12030;50.376;8.762;2024-02-04T12:48:51;0.20;;;0.10;;
23702;SDS011;12030;50.376;8.762;2024-02-04T12:51:24;0.40;;;0.00;;
23702;SDS011;12030;50.376;8.762;2024-02-04T12:56:48;0.73;;;0.17;;
23702;SDS011;12030;50.376;8.762;2024-02-04T13:02:08;0.37;;;0.10;;
23702;SDS011;12030;50.376;8.762;2024-02-04T13:07:10;0.20;;;0.10;;
23702;SDS011;12030;50.376;8.762;2024-02-04T13:09:38;0.20;;;0.00;;
23702;SDS011;12030;50.376;8.762;2024-02-04T13:12:05;0.20;;;0.03;;
23702;SDS011;12030;50.376;8.762;2024-02-04T13:14:35;0.23;;;0.10;;
23702;SDS011;12030;50.376;8.762;2024-02-04T13:17:01;0.20;;;0.03;;
23702;SDS011;12030;50.376;8.762;2024-02-04T13:22:00;0.20;;;0.10;;
23702;SDS011;12030;50.376;8.762;2024-02-04T13:24:28;0.30;;;0.10;;
23702;SDS011;12030;50.376;8.762;2024-02-04T13:26:54;0.93;;;0.30;;
23702;SDS011;12030;50.376;8.762;2024-02-04T13:29:19;1.23;;;0.20;;
23702;SDS011;12030;50.376;8.762;2024-02-04T13:31:45;0.20;;;0.10;;
23702;SDS011;12030;50.376;8.762;2024-02-04T13:34:10;0.87;;;0.27;;
23702;SDS011;12030;50.376;8.762;2024-02-04T13:36:36;0.37;;;0.20;;
23702;SDS011;12030;50.376;8.762;2024-02-04T13:39:01;0.50;;;0.30;;
23702;SDS011;12030;50.376;8.762;2024-02-04T13:41:27;0.40;;;0.10;;
23702;SDS011;12030;50.376;8.762;2024-02-04T13:43:53;0.27;;;0.00;;
23702;SDS011;12030;50.376;8.762;2024-02-04T13:46:19;0.23;;;0.10;;
23702;SDS011;12030;50.376;8.762;2024-02-04T13:48:44;0.47;;;0.17;;
23702;SDS011;12030;50.376;8.762;2024-02-04T13:51:10;0.27;;;0.03;;
23702;SDS011;12030;50.376;8.762;2024-02-04T13:53:36;0.40;;;0.20;;
23702;SDS011;12030;50.376;8.762;2024-02-04T13:56:01;0.20;;;0.10;;
23702;SDS011;12030;50.376;8.762;2024-02-04T13:58:27;0.50;;;0.20;;
23702;SDS011;12030;50.376;8.762;2024-02-04T14:00:53;0.20;;;0.10;;
23702;SDS011;12030;50.376;8.762;2024-02-04T14:03:18;0.63;;;0.17;;
23702;SDS011;12030;50.376;8.762;2024-02-04T14:05:44;0.30;;;0.10;;
23702;SDS011;12030;50.376;8.762;2024-02-04T14:08:10;1.07;;;0.20;;
23702;SDS011;12030;50.376;8.762;2024-02-04T14:10:35;0.23;;;0.10;;
23702;SDS011;12030;50.376;8.762;2024-02-04T14:13:01;0.40;;;0.00;;
23702;SDS011;12030;50.376;8.762;2024-02-04T14:15:27;0.20;;;0.10;;
23702;SDS011;12030;50.376;8.762;2024-02-04T14:17:53;0.20;;;0.00;;
23702;SDS011;12030;50.376;8.762;2024-02-04T14:20:19;0.20;;;0.00;;
23702;SDS011;12030;50.376;8.762;2024-02-04T14:22:44;0.30;;;0.10;;
23702;SDS011;12030;50.376;8.762;2024-02-04T14:25:10;1.20;;;0.10;;
23702;SDS011;12030;50.376;8.762;2024-02-04T14:27:36;0.30;;;0.13;;
23702;SDS011;12030;50.376;8.762;2024-02-04T14:30:01;0.40;;;0.27;;
23702;SDS011;12030;50.376;8.762;2024-02-04T14:32:28;0.20;;;0.10;;
23702;SDS011;12030;50.376;8.762;2024-02-04T14:34:53;0.20;;;0.00;;
23702;SDS011;12030;50.376;8.762;2024-02-04T14:37:19;0.40;;;0.10;;
23702;SDS011;12030;50.376;8.762;2024-02-04T14:39:45;0.30;;;0.13;;
23702;SDS011;12030;50.376;8.762;2024-02-04T14:42:11;0.20;;;0.00;;
23702;SDS011;12030;50.376;8.762;2024-02-04T14:44:36;0.40;;;0.10;;
23702;SDS011;12030;50.376;8.762;2024-02-04T14:47:02;0.20;;;0.00;;
23702;SDS011;12030;50.376;8.762;2024-02-04T14:49:28;0.20;;;0.10;;
23702;SDS011;12030;50.376;8.762;2024-02-04T14:51:53;0.20;;;0.10;;
23702;SDS011;12030;50.376;8.762;2024-02-04T14:54:19;0.23;;;0.10;;
23702;SDS011;12030;50.376;8.762;2024-02-04T14:56:45;0.20;;;0.07;;
23702;SDS011;12030;50.376;8.762;2024-02-04T14:59:11;0.70;;;0.10;;
23702;SDS011;12030;50.376;8.762;2024-02-04T15:01:37;0.20;;;0.10;;
23702;SDS011;12030;50.376;8.762;2024-02-04T15:04:03;0.23;;;0.10;;
23702;SDS011;12030;50.376;8.762;2024-02-04T15:06:29;0.30;;;0.20;;